Time;durP1;ratioP1;P1;durP2;ratioP2;P2;SDS_P1;SDS_P2;PMS_P1;PMS_P2;Temp;Humidity;BMP_temperature;BMP_pressure;BME280_temperature;BME280_humidity;BME280_pressure;Samples;Min_cycle;Max_cycle;Signal;HPM_P1;HPM_P2
2022/08/13 00:00:59;;;;;;;3.00;2.30;;;;;;;;;;5026812;28;20068;-57
2022/08/13 00:03:29;;;;;;;2.40;2.20;;;;;;;;;;5026906;28;20029;-56
2022/08/13 00:05:54;;;;;;;3.38;2.42;;;;;;;;;;5028775;28;20076;-56
2022/08/13 00:08:24;;;;;;;3.00;2.40;;;;;;;;;;5030726;28;20025;-57
2022/08/13 00:10:52;;;;;;;3.08;2.78;;;;;;;;;;5027491;28;20511;-57
2022/08/13 00:13:18;;;;;;;2.85;2.28;;;;;;;;;;5028036;28;20072;-57
2022/08/13 00:15:45;;;;;;;3.17;2.47;;;;;;;;;;5028724;28;20504;-56
2022/08/13 00:18:18;;;;;;;2.58;2.25;;;;;;;;;;5026734;28;20047;-56
2022/08/13 00:20:53;;;;;;;2.30;2.10;;;;;;;;;;5027729;28;20026;-57
2022/08/13 00:23:20;;;;;;;4.45;2.60;;;;;;;;;;5028625;28;20068;-58
2022/08/13 00:25:49;;;;;;;2.58;2.38;;;;;;;;;;5028556;28;20445;-57
2022/08/13 00:28:18;;;;;;;3.95;2.78;;;;;;;;;;5027452;28;20029;-58
2022/08/13 00:30:44;;;;;;;3.00;2.70;;;;;;;;;;5026814;28;20177;-56
2022/08/13 00:33:12;;;;;;;2.92;2.30;;;;;;;;;;5026748;28;20041;-56
2022/08/13 00:35:42;;;;;;;2.80;2.53;;;;;;;;;;5033531;28;20065;-58
2022/08/13 00:38:13;;;;;;;;;;;;;;;;;;5030105;28;20041;-57
2022/08/13 00:40:59;;;;;;;2.72;2.53;;;;;;;;;;5025435;28;19983;-57
2022/08/13 00:43:26;;;;;;;3.47;3.00;;;;;;;;;;5028913;28;20091;-58
2022/08/13 00:45:54;;;;;;;6.72;2.80;;;;;;;;;;5030716;28;20025;-57
2022/08/13 00:51:06;;;;;;;3.40;2.70;;;;;;;;;;4983129;28;1159583;-56
2022/08/13 00:53:32;;;;;;;2.90;2.60;;;;;;;;;;5026670;28;20047;-57
2022/08/13 00:55:58;;;;;;;3.58;2.83;;;;;;;;;;5027059;28;20056;-57
2022/08/13 00:58:26;;;;;;;3.67;2.85;;;;;;;;;;5028017;28;20026;-57
2022/08/13 01:00:56;;;;;;;3.88;2.67;;;;;;;;;;5026149;28;20033;-57
2022/08/13 01:03:22;;;;;;;4.32;3.00;;;;;;;;;;5033901;28;20104;-57
2022/08/13 01:05:48;;;;;;;3.10;2.80;;;;;;;;;;5026829;28;20152;-57
2022/08/13 01:08:19;;;;;;;4.22;2.90;;;;;;;;;;5028255;28;20033;-58
2022/08/13 01:10:48;;;;;;;3.20;2.80;;;;;;;;;;5029261;28;20039;-58
2022/08/13 01:13:14;;;;;;;3.05;2.75;;;;;;;;;;5029052;28;20109;-57
2022/08/13 01:15:41;;;;;;;5.18;2.67;;;;;;;;;;5028931;28;20029;-57
2022/08/13 01:18:13;;;;;;;3.60;2.70;;;;;;;;;;5028679;28;20030;-58
2022/08/13 01:20:59;;;;;;;3.97;2.90;;;;;;;;;;5028969;28;20029;-57
2022/08/13 01:23:25;;;;;;;3.10;2.80;;;;;;;;;;5029835;28;20055;-57
2022/08/13 01:25:52;;;;;;;3.72;2.78;;;;;;;;;;5025918;28;20542;-58
2022/08/13 01:28:18;;;;;;;4.75;2.80;;;;;;;;;;5028126;28;20037;-58
2022/08/13 01:30:46;;;;;;;2.80;2.35;;;;;;;;;;5027208;28;20037;-57
2022/08/13 01:33:15;;;;;;;3.67;2.90;;;;;;;;;;5026509;28;20077;-58
2022/08/13 01:35:41;;;;;;;3.70;3.20;;;;;;;;;;5021493;28;20025;-57
2022/08/13 01:38:08;;;;;;;6.32;2.80;;;;;;;;;;5028488;28;20037;-58
2022/08/13 01:40:34;;;;;;;3.00;2.80;;;;;;;;;;5026687;28;20025;-57
2022/08/13 01:43:00;;;;;;;5.57;3.10;;;;;;;;;;5029839;28;20108;-57
2022/08/13 01:45:27;;;;;;;3.53;3.05;;;;;;;;;;5024600;28;20112;-58
2022/08/13 01:50:37;;;;;;;3.00;2.70;;;;;;;;;;5028993;28;20052;-58
2022/08/13 01:53:02;;;;;;;3.35;3.05;;;;;;;;;;5029209;28;20025;-57
2022/08/13 01:55:39;;;;;;;3.83;2.88;;;;;;;;;;5031833;28;20057;-57
2022/08/13 01:58:07;;;;;;;3.30;2.92;;;;;;;;;;5034893;28;20108;-58
2022/08/13 02:00:34;;;;;;;3.47;3.17;;;;;;;;;;5031584;28;20048;-57
2022/08/13 02:03:01;;;;;;;5.70;3.40;;;;;;;;;;5029489;28;20511;-57
2022/08/13 02:05:27;;;;;;;3.65;2.85;;;;;;;;;;5030896;28;20029;-57
2022/08/13 02:07:53;;;;;;;3.42;2.83;;;;;;;;;;5030573;28;20037;-57
2022/08/13 02:10:22;;;;;;;3.35;3.05;;;;;;;;;;5031381;28;20032;-57
2022/08/13 02:12:48;;;;;;;3.78;3.08;;;;;;;;;;5035756;28;20399;-57
2022/08/13 02:15:15;;;;;;;3.42;3.00;;;;;;;;;;5031776;28;20030;-57
2022/08/13 02:17:41;;;;;;;4.18;3.70;;;;;;;;;;5030665;28;20439;-57
2022/08/13 02:20:08;;;;;;;4.47;3.22;;;;;;;;;;5034323;28;20059;-57
2022/08/13 02:22:34;;;;;;;4.40;3.30;;;;;;;;;;5029821;28;20192;-58
2022/08/13 02:25:01;;;;;;;3.42;3.13;;;;;;;;;;5031742;28;20518;-57
2022/08/13 02:27:27;;;;;;;4.88;3.50;;;;;;;;;;5030952;28;20051;-57
2022/08/13 02:29:55;;;;;;;4.15;3.50;;;;;;;;;;5031469;28;20030;-57
2022/08/13 02:32:23;;;;;;;4.57;3.10;;;;;;;;;;5027845;28;20036;-58
2022/08/13 02:34:50;;;;;;;4.53;3.53;;;;;;;;;;5030388;28;20036;-57
2022/08/13 02:37:20;;;;;;;3.58;3.28;;;;;;;;;;5030390;28;20071;-57
2022/08/13 02:39:45;;;;;;;3.70;3.40;;;;;;;;;;5029787;28;20037;-57
2022/08/13 02:42:12;;;;;;;4.95;3.60;;;;;;;;;;5033359;28;20021;-56
2022/08/13 02:44:39;;;;;;;3.65;3.05;;;;;;;;;;5031467;28;20029;-56
2022/08/13 02:47:05;;;;;;;4.00;3.60;;;;;;;;;;5029294;28;20088;-56
2022/08/13 02:49:31;;;;;;;4.63;3.50;;;;;;;;;;5035674;28;20035;-56
2022/08/13 02:51:57;;;;;;;4.45;3.25;;;;;;;;;;5029304;28;20029;-56
2022/08/13 02:54:23;;;;;;;5.15;3.10;;;;;;;;;;5030710;28;20034;-56
2022/08/13 02:56:48;;;;;;;3.30;2.70;;;;;;;;;;5030809;28;20090;-56
2022/08/13 02:59:14;;;;;;;3.80;2.90;;;;;;;;;;5032989;28;20033;-56
2022/08/13 03:01:40;;;;;;;3.40;3.05;;;;;;;;;;5029794;28;20032;-57
2022/08/13 03:04:09;;;;;;;4.25;3.40;;;;;;;;;;5032581;28;20025;-56
2022/08/13 03:06:35;;;;;;;3.78;3.38;;;;;;;;;;5030797;28;20519;-56
2022/08/13 03:09:04;;;;;;;6.18;3.50;;;;;;;;;;5028398;28;20021;-57
2022/08/13 03:11:29;;;;;;;4.28;3.05;;;;;;;;;;5030271;28;20025;-57
2022/08/13 03:14:07;;;;;;;3.70;3.40;;;;;;;;;;5029973;28;20025;-57
2022/08/13 03:16:34;;;;;;;4.15;3.65;;;;;;;;;;5037306;28;20041;-57
2022/08/13 03:19:00;;;;;;;4.32;3.80;;;;;;;;;;5029530;28;20025;-57
2022/08/13 03:21:43;;;;;;;4.20;3.40;;;;;;;;;;5029868;28;20108;-57
2022/08/13 03:24:20;;;;;;;3.45;3.15;;;;;;;;;;5032937;28;20401;-57
2022/08/13 03:26:46;;;;;;;3.60;3.30;;;;;;;;;;5031085;28;20049;-57
2022/08/13 03:29:14;;;;;;;3.90;3.50;;;;;;;;;;5028782;28;20104;-57
2022/08/13 03:31:40;;;;;;;4.28;3.17;;;;;;;;;;5027693;28;20025;-57
2022/08/13 03:34:06;;;;;;;3.95;3.42;;;;;;;;;;5032409;28;20112;-57
2022/08/13 03:36:33;;;;;;;4.57;3.78;;;;;;;;;;5028922;28;20033;-57
2022/08/13 03:39:00;;;;;;;5.45;3.50;;;;;;;;;;5034352;28;20503;-57
2022/08/13 03:41:26;;;;;;;5.82;3.38;;;;;;;;;;5028578;28;20034;-57
2022/08/13 03:43:52;;;;;;;6.45;3.65;;;;;;;;;;5029789;28;20017;-57
2022/08/13 03:46:21;;;;;;;4.30;3.45;;;;;;;;;;5030157;28;20026;-57
2022/08/13 03:48:48;;;;;;;4.60;3.42;;;;;;;;;;5029918;28;20029;-57
2022/08/13 03:51:15;;;;;;;4.53;3.70;;;;;;;;;;5027480;28;20040;-57
2022/08/13 03:53:41;;;;;;;4.93;3.70;;;;;;;;;;5028484;28;20022;-57
2022/08/13 03:56:08;;;;;;;6.90;3.42;;;;;;;;;;5030082;28;20030;-56
2022/08/13 03:58:34;;;;;;;3.95;3.55;;;;;;;;;;5028096;28;20029;-56
2022/08/13 04:01:02;;;;;;;5.55;3.55;;;;;;;;;;5029485;28;20104;-56
2022/08/13 04:03:30;;;;;;;4.70;3.38;;;;;;;;;;5029073;28;20033;-56
2022/08/13 04:06:00;;;;;;;3.77;3.40;;;;;;;;;;5031208;28;20024;-56
2022/08/13 04:08:34;;;;;;;;;;;;;;;;;;5029503;28;20159;-56
2022/08/13 04:11:03;;;;;;;7.07;3.83;;;;;;;;;;5027880;28;19913;-56
2022/08/13 04:13:36;;;;;;;4.32;3.60;;;;;;;;;;5034334;28;20026;-56
2022/08/13 04:16:23;;;;;;;5.35;3.65;;;;;;;;;;5034576;28;20043;-57
2022/08/13 04:18:50;;;;;;;3.95;3.55;;;;;;;;;;5027828;28;20061;-56
2022/08/13 04:21:17;;;;;;;4.63;3.45;;;;;;;;;;5028429;28;20029;-56
2022/08/13 04:23:46;;;;;;;5.43;3.40;;;;;;;;;;5035696;28;20175;-56
2022/08/13 04:26:14;;;;;;;5.22;3.50;;;;;;;;;;5027612;28;20075;-57
2022/08/13 04:28:41;;;;;;;4.75;3.80;;;;;;;;;;5027981;28;20037;-57
2022/08/13 04:31:09;;;;;;;3.72;3.30;;;;;;;;;;5029745;28;20037;-57
2022/08/13 04:33:36;;;;;;;7.90;3.60;;;;;;;;;;5028027;28;20025;-57
2022/08/13 04:36:03;;;;;;;4.38;3.50;;;;;;;;;;5029046;28;20518;-57
2022/08/13 04:38:28;;;;;;;4.65;3.53;;;;;;;;;;5028483;28;20484;-56
2022/08/13 04:40:53;;;;;;;6.35;3.45;;;;;;;;;;5033860;28;20013;-56
2022/08/13 04:43:19;;;;;;;5.18;3.90;;;;;;;;;;5028120;28;20025;-56
2022/08/13 04:45:45;;;;;;;5.75;4.35;;;;;;;;;;5029626;28;20025;-57
2022/08/13 04:48:15;;;;;;;5.05;4.20;;;;;;;;;;5027774;28;20672;-58
2022/08/13 04:50:44;;;;;;;4.50;3.72;;;;;;;;;;5028647;28;20499;-57
2022/08/13 04:53:27;;;;;;;4.35;3.60;;;;;;;;;;5035921;28;20065;-57
2022/08/13 04:55:54;;;;;;;7.00;3.53;;;;;;;;;;5027025;28;20032;-57
2022/08/13 04:58:21;;;;;;;3.92;3.60;;;;;;;;;;5027407;28;20037;-57
2022/08/13 05:00:47;;;;;;;8.15;4.60;;;;;;;;;;5029404;28;20533;-57
2022/08/13 05:03:18;;;;;;;7.57;4.85;;;;;;;;;;5028233;28;20041;-59
2022/08/13 05:05:47;;;;;;;11.60;7.60;;;;;;;;;;5028811;28;20029;-59
2022/08/13 05:08:15;;;;;;;9.98;6.10;;;;;;;;;;5028297;28;20033;-60
2022/08/13 05:10:44;;;;;;;8.98;5.97;;;;;;;;;;5028585;28;20033;-60
2022/08/13 05:13:22;;;;;;;9.40;5.05;;;;;;;;;;5028815;28;20032;-60
2022/08/13 05:15:48;;;;;;;6.13;4.75;;;;;;;;;;5033043;28;20095;-60
2022/08/13 05:18:16;;;;;;;12.43;4.65;;;;;;;;;;5028349;28;20025;-60
2022/08/13 05:20:42;;;;;;;7.40;4.30;;;;;;;;;;5027985;28;20098;-59
2022/08/13 05:23:11;;;;;;;5.82;5.13;;;;;;;;;;5028256;28;20475;-59
2022/08/13 05:25:36;;;;;;;5.22;4.60;;;;;;;;;;5027562;28;20048;-59
2022/08/13 05:28:02;;;;;;;5.90;4.40;;;;;;;;;;5034477;28;20025;-59
2022/08/13 05:30:27;;;;;;;7.20;4.32;;;;;;;;;;5031669;28;20491;-60
2022/08/13 05:32:57;;;;;;;7.18;4.22;;;;;;;;;;5024788;28;20032;-59
2022/08/13 05:35:23;;;;;;;;;;;;;;;;;;5031675;28;20036;-60
2022/08/13 05:37:49;;;;;;;10.32;4.57;;;;;;;;;;5031573;28;20390;-59
2022/08/13 05:40:14;;;;;;;5.45;4.20;;;;;;;;;;5031654;28;20479;-59
2022/08/13 05:42:40;;;;;;;4.60;4.10;;;;;;;;;;5031568;28;20018;-59
2022/08/13 05:45:08;;;;;;;5.25;4.20;;;;;;;;;;5030664;28;20502;-59
2022/08/13 05:47:36;;;;;;;5.60;4.30;;;;;;;;;;5031850;28;20028;-59
2022/08/13 05:50:13;;;;;;;4.75;4.05;;;;;;;;;;5033326;28;20403;-59
2022/08/13 05:52:39;;;;;;;6.00;4.80;;;;;;;;;;5029708;28;20053;-59
2022/08/13 05:55:11;;;;;;;5.35;4.40;;;;;;;;;;5029992;28;20116;-59
2022/08/13 05:57:38;;;;;;;5.05;4.50;;;;;;;;;;5030247;28;20112;-59
2022/08/13 06:05:35;;;;;;;4.78;4.20;;;;;;;;;;5031635;28;20542;-59
2022/08/13 06:08:04;;;;;;;8.35;6.18;;;;;;;;;;5030541;28;20048;-60
2022/08/13 06:10:31;;;;;;;6.30;5.05;;;;;;;;;;5031307;28;20029;-60
2022/08/13 06:12:56;;;;;;;4.70;4.10;;;;;;;;;;5035165;28;20064;-59
2022/08/13 06:15:23;;;;;;;5.18;4.07;;;;;;;;;;5031924;28;20504;-59
2022/08/13 06:17:52;;;;;;;6.00;4.20;;;;;;;;;;5033911;28;20026;-59
2022/08/13 06:20:19;;;;;;;4.85;4.05;;;;;;;;;;5033804;28;20033;-59
2022/08/13 06:22:47;;;;;;;4.40;3.90;;;;;;;;;;5031114;28;20045;-59
2022/08/13 06:25:14;;;;;;;4.78;4.13;;;;;;;;;;5030814;28;20033;-59
2022/08/13 06:27:41;;;;;;;8.65;4.22;;;;;;;;;;5030463;28;20033;-59
2022/08/13 06:30:08;;;;;;;5.70;4.25;;;;;;;;;;5030864;28;20103;-59
2022/08/13 06:32:35;;;;;;;4.97;3.92;;;;;;;;;;5028441;28;20034;-58
2022/08/13 06:35:01;;;;;;;5.65;4.28;;;;;;;;;;5030142;28;20028;-58
2022/08/13 06:37:26;;;;;;;6.13;4.18;;;;;;;;;;5030031;28;20025;-58
2022/08/13 06:39:54;;;;;;;4.72;3.88;;;;;;;;;;5031578;28;20029;-58
2022/08/13 06:42:22;;;;;;;5.00;3.95;;;;;;;;;;5028435;28;20037;-59
2022/08/13 06:44:49;;;;;;;5.68;3.97;;;;;;;;;;5031225;28;20491;-61
2022/08/13 06:47:15;;;;;;;5.47;4.38;;;;;;;;;;5034151;28;20021;-60
2022/08/13 06:49:40;;;;;;;5.70;4.15;;;;;;;;;;5030476;28;20021;-59
2022/08/13 06:52:05;;;;;;;4.45;3.90;;;;;;;;;;5028764;28;20026;-58
2022/08/13 06:54:31;;;;;;;5.05;4.10;;;;;;;;;;5031589;28;20026;-58
2022/08/13 06:56:59;;;;;;;7.13;4.10;;;;;;;;;;5030338;28;20056;-59
2022/08/13 06:59:25;;;;;;;7.57;4.13;;;;;;;;;;5029669;28;20094;-58
2022/08/13 07:02:00;;;;;;;4.78;4.28;;;;;;;;;;5028928;28;20025;-59
2022/08/13 07:04:26;;;;;;;5.30;3.80;;;;;;;;;;5031324;28;20494;-58
2022/08/13 07:06:52;;;;;;;4.97;4.57;;;;;;;;;;5029481;28;20036;-59
2022/08/13 07:09:19;;;;;;;7.10;4.45;;;;;;;;;;5030274;28;20462;-59
2022/08/13 07:11:45;;;;;;;5.05;4.50;;;;;;;;;;5028353;28;20025;-59
2022/08/13 07:14:13;;;;;;;6.35;4.47;;;;;;;;;;5030008;28;20113;-59
2022/08/13 07:16:40;;;;;;;4.60;4.10;;;;;;;;;;5030431;28;20107;-59
2022/08/13 07:19:06;;;;;;;6.00;4.30;;;;;;;;;;5029841;28;20028;-59
2022/08/13 07:21:32;;;;;;;4.90;4.40;;;;;;;;;;5031835;28;20025;-59
2022/08/13 07:24:02;;;;;;;6.43;4.55;;;;;;;;;;5031941;28;20036;-59
2022/08/13 07:26:30;;;;;;;6.13;4.03;;;;;;;;;;5030181;28;20037;-55
2022/08/13 07:28:55;;;;;;;4.45;3.50;;;;;;;;;;5029237;28;20017;-55
2022/08/13 07:31:27;;;;;;;5.57;3.90;;;;;;;;;;5025384;28;20409;-55
2022/08/13 07:33:54;;;;;;;4.50;3.83;;;;;;;;;;5030327;28;20025;-55
2022/08/13 07:36:23;;;;;;;5.22;3.90;;;;;;;;;;5030597;28;20071;-55
2022/08/13 07:38:49;;;;;;;4.60;4.07;;;;;;;;;;5030719;28;20025;-55
2022/08/13 07:41:15;;;;;;;4.60;3.90;;;;;;;;;;5020764;28;20099;-55
2022/08/13 07:43:45;;;;;;;12.00;4.10;;;;;;;;;;5028005;28;20022;-55
2022/08/13 07:46:15;;;;;;;7.70;4.40;;;;;;;;;;5026073;28;20024;-55
2022/08/13 07:48:43;;;;;;;7.88;3.92;;;;;;;;;;5026923;28;20483;-55
2022/08/13 07:51:15;;;;;;;4.65;4.15;;;;;;;;;;5025681;28;20037;-55
2022/08/13 07:53:41;;;;;;;7.28;4.22;;;;;;;;;;5030787;28;20364;-55
2022/08/13 07:56:08;;;;;;;7.90;4.47;;;;;;;;;;5025783;28;20029;-55
2022/08/13 07:58:35;;;;;;;5.43;4.40;;;;;;;;;;5030829;28;20749;-55
2022/08/13 08:01:03;;;;;;;7.05;5.13;;;;;;;;;;5029580;28;20128;-55
2022/08/13 08:03:34;;;;;;;6.30;4.22;;;;;;;;;;5031853;28;20503;-55
2022/08/13 08:06:00;;;;;;;7.55;4.45;;;;;;;;;;5029087;28;20143;-55
2022/08/13 08:08:26;;;;;;;7.43;4.70;;;;;;;;;;5032608;28;20040;-55
2022/08/13 08:10:54;;;;;;;7.13;4.28;;;;;;;;;;5028018;28;20033;-55
2022/08/13 08:13:20;;;;;;;7.00;4.20;;;;;;;;;;5028402;28;20399;-55
2022/08/13 08:15:45;;;;;;;9.63;4.20;;;;;;;;;;5027830;28;20025;-55
2022/08/13 08:18:12;;;;;;;5.88;4.10;;;;;;;;;;5026785;28;20037;-55
2022/08/13 08:20:42;;;;;;;5.55;4.32;;;;;;;;;;5028922;28;20036;-55
2022/08/13 08:23:09;;;;;;;4.82;4.18;;;;;;;;;;5032584;28;20040;-55
2022/08/13 08:25:35;;;;;;;4.93;4.05;;;;;;;;;;5028517;28;20036;-56
2022/08/13 08:28:01;;;;;;;7.57;4.07;;;;;;;;;;5027167;28;20021;-54
2022/08/13 08:30:26;;;;;;;5.50;4.57;;;;;;;;;;5027638;28;20155;-55
2022/08/13 08:32:56;;;;;;;6.45;4.40;;;;;;;;;;5025279;28;20057;-55
2022/08/13 08:35:22;;;;;;;5.72;4.35;;;;;;;;;;5029432;28;20108;-55
2022/08/13 08:43:32;;;;;;;5.07;4.20;;;;;;;;;;5026592;28;20072;-55
2022/08/13 08:45:57;;;;;;;5.13;4.53;;;;;;;;;;5027394;28;20097;-55
2022/08/13 08:48:24;;;;;;;5.78;3.95;;;;;;;;;;5027232;28;20025;-56
2022/08/13 08:50:49;;;;;;;9.55;4.30;;;;;;;;;;5029160;28;20056;-59
2022/08/13 08:53:19;;;;;;;6.65;3.95;;;;;;;;;;5026934;28;20076;-59
2022/08/13 08:55:45;;;;;;;7.07;4.15;;;;;;;;;;5026819;28;20029;-59
2022/08/13 08:58:12;;;;;;;5.85;3.97;;;;;;;;;;5028103;28;20025;-60
2022/08/13 09:00:39;;;;;;;5.72;3.72;;;;;;;;;;5033291;28;20086;-59
2022/08/13 09:03:07;;;;;;;4.30;3.90;;;;;;;;;;5029292;28;20036;-59
2022/08/13 09:05:33;;;;;;;5.80;4.05;;;;;;;;;;5033760;28;20509;-59
2022/08/13 09:08:03;;;;;;;5.07;3.63;;;;;;;;;;5030337;28;20053;-59
2022/08/13 09:10:33;;;;;;;5.10;3.50;;;;;;;;;;5032516;28;20014;-59
2022/08/13 09:13:03;;;;;;;6.95;3.97;;;;;;;;;;5032992;28;20029;-57
2022/08/13 09:15:33;;;;;;;5.90;3.92;;;;;;;;;;5034514;28;20755;-59
2022/08/13 09:18:00;;;;;;;6.50;3.80;;;;;;;;;;5030216;28;20025;-59
2022/08/13 09:20:28;;;;;;;5.32;3.92;;;;;;;;;;5031282;28;20442;-59
2022/08/13 09:23:07;;;;;;;8.02;3.80;;;;;;;;;;5027694;28;20497;-59
2022/08/13 09:25:34;;;;;;;4.97;3.60;;;;;;;;;;5031020;28;20021;-59
2022/08/13 09:27:59;;;;;;;6.60;3.80;;;;;;;;;;5031432;28;20033;-59
2022/08/13 09:30:24;;;;;;;6.28;3.63;;;;;;;;;;5031424;28;20033;-59
2022/08/13 09:32:57;;;;;;;6.72;3.58;;;;;;;;;;5030627;28;20137;-59
2022/08/13 09:35:26;;;;;;;7.60;3.15;;;;;;;;;;5031458;28;20033;-58
2022/08/13 09:38:03;;;;;;;4.95;3.42;;;;;;;;;;5031805;28;20048;-59
2022/08/13 09:40:32;;;;;;;8.82;3.67;;;;;;;;;;5032498;28;20091;-59
2022/08/13 09:43:02;;;;;;;;;;;;;;;;;;5032590;28;20026;-60
2022/08/13 09:45:29;;;;;;;5.65;3.58;;;;;;;;;;5031729;28;20357;-60
2022/08/13 09:47:56;;;;;;;4.25;3.47;;;;;;;;;;5029983;28;20102;-60
2022/08/13 09:50:24;;;;;;;6.72;3.85;;;;;;;;;;5032798;28;20030;-60
2022/08/13 09:52:52;;;;;;;7.20;3.28;;;;;;;;;;5028644;28;20091;-60
2022/08/13 09:55:19;;;;;;;5.13;3.55;;;;;;;;;;5030626;28;20108;-60
2022/08/13 09:57:51;;;;;;;4.72;3.42;;;;;;;;;;5030320;28;20034;-60
2022/08/13 10:00:23;;;;;;;8.45;3.67;;;;;;;;;;5030255;28;20039;-60
2022/08/13 10:02:52;;;;;;;7.15;3.42;;;;;;;;;;5027926;28;20034;-60
2022/08/13 10:05:18;;;;;;;;;;;;;;;;;;5031330;28;20061;-60
2022/08/13 10:07:45;;;;;;;7.43;3.28;;;;;;;;;;5031045;28;19966;-60
2022/08/13 10:10:10;;;;;;;4.40;3.22;;;;;;;;;;5036485;28;20030;-58
2022/08/13 10:12:36;;;;;;;6.55;3.42;;;;;;;;;;5028488;28;20036;-57
2022/08/13 10:15:01;;;;;;;5.93;3.13;;;;;;;;;;5032109;28;20075;-58
2022/08/13 10:17:41;;;;;;;5.38;3.05;;;;;;;;;;5029370;28;20029;-58
2022/08/13 10:20:08;;;;;;;5.03;3.20;;;;;;;;;;5032524;28;20402;-58
2022/08/13 10:22:34;;;;;;;8.15;4.50;;;;;;;;;;5029383;28;20100;-59
2022/08/13 10:24:59;;;;;;;5.90;3.10;;;;;;;;;;5033191;28;20100;-58
2022/08/13 10:27:25;;;;;;;6.75;3.40;;;;;;;;;;5030353;28;20056;-58
2022/08/13 10:29:50;;;;;;;4.95;2.72;;;;;;;;;;5028005;28;20465;-58
2022/08/13 10:32:16;;;;;;;3.85;2.95;;;;;;;;;;5029490;28;20574;-58
2022/08/13 10:34:43;;;;;;;4.50;2.65;;;;;;;;;;5031897;28;20025;-58
2022/08/13 10:37:08;;;;;;;7.93;3.10;;;;;;;;;;5031420;28;20112;-58
2022/08/13 10:39:33;;;;;;;6.18;2.92;;;;;;;;;;5029641;28;20113;-58
2022/08/13 10:42:00;;;;;;;4.75;3.10;;;;;;;;;;5029985;28;20194;-60
2022/08/13 10:44:25;;;;;;;6.28;2.45;;;;;;;;;;5028849;28;20032;-59
2022/08/13 10:46:51;;;;;;;3.90;2.80;;;;;;;;;;5033652;28;20037;-59
2022/08/13 10:49:16;;;;;;;3.92;2.45;;;;;;;;;;5032960;28;20036;-60
2022/08/13 10:51:41;;;;;;;2.90;2.38;;;;;;;;;;5030199;28;20025;-57
2022/08/13 10:54:07;;;;;;;3.90;2.45;;;;;;;;;;5029404;28;20060;-57
2022/08/13 10:56:33;;;;;;;3.28;2.67;;;;;;;;;;5029615;28;20113;-57
2022/08/13 10:59:02;;;;;;;4.15;2.55;;;;;;;;;;5031617;28;20071;-56
2022/08/13 11:01:29;;;;;;;5.15;2.40;;;;;;;;;;5028280;28;20033;-60
2022/08/13 11:03:58;;;;;;;2.70;2.50;;;;;;;;;;5030778;28;20022;-61
2022/08/13 11:06:27;;;;;;;5.35;2.15;;;;;;;;;;5030997;28;20022;-59
2022/08/13 11:08:59;;;;;;;2.30;2.10;;;;;;;;;;5024605;28;20163;-60
2022/08/13 11:11:25;;;;;;;4.40;2.30;;;;;;;;;;5027738;28;20101;-62
2022/08/13 11:13:50;;;;;;;3.33;2.53;;;;;;;;;;5029913;28;20109;-59
2022/08/13 11:19:20;;;;;;;3.58;2.40;;;;;;;;;;5032795;28;20055;-54
2022/08/13 11:21:48;;;;;;;3.47;2.30;;;;;;;;;;5031589;28;20446;-54
2022/08/13 11:24:14;;;;;;;4.18;2.17;;;;;;;;;;5032269;28;20087;-55
2022/08/13 11:26:40;;;;;;;4.45;2.40;;;;;;;;;;5031902;28;20491;-54
2022/08/13 11:29:06;;;;;;;3.97;2.65;;;;;;;;;;5028712;28;20044;-58
2022/08/13 11:31:32;;;;;;;4.22;2.40;;;;;;;;;;5028499;28;20028;-54
2022/08/13 11:33:57;;;;;;;2.80;2.60;;;;;;;;;;5028756;28;20369;-55
2022/08/13 11:36:22;;;;;;;5.13;2.80;;;;;;;;;;5028028;28;20030;-54
2022/08/13 11:38:48;;;;;;;3.60;2.50;;;;;;;;;;5029066;28;20087;-54
2022/08/13 11:41:13;;;;;;;3.20;2.20;;;;;;;;;;5026622;28;20028;-56
2022/08/13 11:43:39;;;;;;;3.42;2.05;;;;;;;;;;5029416;28;20216;-56
2022/08/13 11:46:04;;;;;;;2.30;2.00;;;;;;;;;;5030097;28;20029;-56
2022/08/13 11:48:30;;;;;;;3.33;2.28;;;;;;;;;;5028459;28;20014;-56
2022/08/13 11:50:56;;;;;;;3.25;2.10;;;;;;;;;;5027273;28;20545;-56
2022/08/13 11:53:23;;;;;;;2.38;1.98;;;;;;;;;;5030521;28;20043;-55
2022/08/13 11:55:48;;;;;;;3.03;1.85;;;;;;;;;;5025481;28;20025;-56
2022/08/13 11:58:14;;;;;;;4.05;2.10;;;;;;;;;;5025166;28;20120;-55
2022/08/13 12:00:42;;;;;;;5.45;2.15;;;;;;;;;;5026388;28;20033;-55
2022/08/13 12:03:08;;;;;;;4.57;2.38;;;;;;;;;;5035150;28;20025;-54
2022/08/13 12:05:34;;;;;;;3.15;2.17;;;;;;;;;;5030139;28;20037;-55
2022/08/13 12:07:59;;;;;;;2.10;1.90;;;;;;;;;;5028718;28;20108;-55
2022/08/13 12:10:25;;;;;;;6.32;2.50;;;;;;;;;;5031915;28;20470;-54
2022/08/13 12:12:50;;;;;;;2.28;2.08;;;;;;;;;;5027559;28;20035;-54
2022/08/13 12:15:16;;;;;;;4.05;1.83;;;;;;;;;;5029743;28;20103;-54
2022/08/13 12:17:44;;;;;;;2.97;2.30;;;;;;;;;;5028536;28;20026;-56
2022/08/13 12:20:12;;;;;;;6.07;2.00;;;;;;;;;;5028356;28;20036;-54
2022/08/13 12:22:39;;;;;;;2.90;2.00;;;;;;;;;;5026289;28;20029;-55
2022/08/13 12:25:05;;;;;;;3.38;2.08;;;;;;;;;;5030450;28;20064;-53
2022/08/13 12:27:31;;;;;;;2.33;2.03;;;;;;;;;;5026232;28;20049;-54
2022/08/13 12:29:56;;;;;;;5.45;2.00;;;;;;;;;;5027638;28;20518;-54
2022/08/13 12:32:22;;;;;;;5.00;2.00;;;;;;;;;;5023598;28;20038;-55
2022/08/13 12:34:47;;;;;;;2.20;1.85;;;;;;;;;;5028639;28;20029;-55
2022/08/13 12:37:13;;;;;;;1.83;1.63;;;;;;;;;;5024075;28;20033;-54
2022/08/13 12:39:38;;;;;;;3.55;2.10;;;;;;;;;;5028522;28;20018;-55
2022/08/13 12:42:04;;;;;;;1.92;1.77;;;;;;;;;;5026109;28;20045;-54
2022/08/13 12:44:29;;;;;;;2.83;2.03;;;;;;;;;;5025744;28;20040;-54
2022/08/13 12:46:54;;;;;;;3.47;2.20;;;;;;;;;;5026545;28;20079;-54
2022/08/13 12:49:20;;;;;;;3.33;2.00;;;;;;;;;;5026782;28;20022;-55
2022/08/13 12:51:45;;;;;;;3.55;2.22;;;;;;;;;;5025703;28;20391;-54
2022/08/13 12:54:10;;;;;;;2.20;2.00;;;;;;;;;;5026102;28;20034;-55
2022/08/13 12:56:37;;;;;;;2.20;2.00;;;;;;;;;;5026915;28;20056;-54
2022/08/13 12:59:03;;;;;;;3.28;2.22;;;;;;;;;;5025415;28;20036;-55
2022/08/13 13:01:30;;;;;;;2.38;1.83;;;;;;;;;;5018168;28;20033;-55
2022/08/13 13:03:56;;;;;;;2.38;1.88;;;;;;;;;;5021539;28;20507;-55
2022/08/13 13:06:21;;;;;;;3.03;2.20;;;;;;;;;;5025229;28;20036;-56
2022/08/13 13:08:46;;;;;;;2.55;1.90;;;;;;;;;;5031154;28;20033;-57
2022/08/13 13:11:13;;;;;;;2.10;1.95;;;;;;;;;;5026960;28;20396;-56
2022/08/13 13:13:39;;;;;;;3.13;1.90;;;;;;;;;;5027257;28;20025;-56
2022/08/13 13:16:07;;;;;;;2.88;2.22;;;;;;;;;;5027276;28;20038;-56
2022/08/13 13:18:33;;;;;;;4.03;2.65;;;;;;;;;;5025981;28;20116;-57
2022/08/13 13:20:59;;;;;;;5.20;1.90;;;;;;;;;;5026243;28;20835;-57
2022/08/13 13:23:27;;;;;;;4.15;1.90;;;;;;;;;;5024594;28;20113;-57
2022/08/13 13:25:54;;;;;;;4.18;2.10;;;;;;;;;;5026244;28;20021;-56
2022/08/13 13:28:22;;;;;;;2.75;2.00;;;;;;;;;;5025467;28;20446;-57
2022/08/13 13:30:49;;;;;;;2.58;1.70;;;;;;;;;;5026956;28;20021;-57
2022/08/13 13:33:15;;;;;;;4.05;1.98;;;;;;;;;;5024355;28;20145;-57
2022/08/13 13:35:42;;;;;;;4.95;2.13;;;;;;;;;;5025898;28;20104;-57
2022/08/13 13:38:09;;;;;;;1.92;1.75;;;;;;;;;;5026948;28;20483;-56
2022/08/13 13:40:43;;;;;;;2.25;1.80;;;;;;;;;;5029753;28;20394;-57
2022/08/13 13:43:09;;;;;;;4.10;1.80;;;;;;;;;;5026153;28;20033;-57
2022/08/13 13:45:35;;;;;;;5.32;1.90;;;;;;;;;;5019504;28;20103;-57
2022/08/13 13:48:01;;;;;;;2.80;2.38;;;;;;;;;;5025880;28;20108;-56
2022/08/13 13:50:28;;;;;;;2.33;1.90;;;;;;;;;;5032358;28;20064;-56
2022/08/13 13:52:53;;;;;;;4.18;2.20;;;;;;;;;;5029429;28;20029;-56
2022/08/13 13:55:19;;;;;;;3.92;2.30;;;;;;;;;;5034760;28;20034;-59
2022/08/13 13:57:45;;;;;;;2.88;2.20;;;;;;;;;;5030556;28;20078;-59
2022/08/13 14:00:12;;;;;;;3.90;2.33;;;;;;;;;;5032214;28;20026;-59
2022/08/13 14:02:53;;;;;;;3.78;2.30;;;;;;;;;;5030201;28;20022;-59
2022/08/13 14:05:20;;;;;;;2.38;1.90;;;;;;;;;;5029587;28;20503;-59
2022/08/13 14:08:04;;;;;;;3.40;2.25;;;;;;;;;;5031454;28;20063;-59
2022/08/13 14:10:31;;;;;;;3.38;2.38;;;;;;;;;;5032412;28;20033;-59
2022/08/13 14:12:57;;;;;;;2.72;2.45;;;;;;;;;;5030218;28;20438;-59
2022/08/13 14:15:24;;;;;;;2.55;2.35;;;;;;;;;;5032057;28;20034;-60
2022/08/13 14:17:53;;;;;;;4.00;2.17;;;;;;;;;;5030605;28;20116;-60
2022/08/13 14:20:20;;;;;;;3.78;2.20;;;;;;;;;;5030744;28;20025;-60
2022/08/13 14:22:46;;;;;;;10.30;2.40;;;;;;;;;;5030858;28;20060;-59
2022/08/13 14:25:15;;;;;;;2.30;2.03;;;;;;;;;;5030884;28;20025;-59
2022/08/13 14:27:42;;;;;;;3.58;2.10;;;;;;;;;;5029690;28;20557;-59
2022/08/13 14:30:08;;;;;;;2.20;2.00;;;;;;;;;;5036939;28;20399;-59
2022/08/13 14:32:35;;;;;;;3.17;2.60;;;;;;;;;;5029366;28;20021;-59
2022/08/13 14:35:09;;;;;;;2.83;2.53;;;;;;;;;;5031579;28;20104;-57
2022/08/13 14:37:37;;;;;;;5.50;2.53;;;;;;;;;;5037239;28;20422;-58
2022/08/13 14:40:08;;;;;;;4.80;2.70;;;;;;;;;;5031359;28;20107;-57
2022/08/13 14:42:43;;;;;;;4.20;2.33;;;;;;;;;;5028361;28;20521;-57
2022/08/13 14:47:56;;;;;;;2.88;2.55;;;;;;;;;;5027580;28;20044;-58
2022/08/13 14:50:22;;;;;;;2.78;2.50;;;;;;;;;;5028250;28;20112;-58
2022/08/13 14:52:48;;;;;;;4.00;2.47;;;;;;;;;;5029183;28;20183;-58
2022/08/13 14:55:15;;;;;;;2.47;2.28;;;;;;;;;;5025438;28;20512;-59
2022/08/13 14:57:41;;;;;;;4.90;2.40;;;;;;;;;;5025753;28;20624;-59
2022/08/13 15:00:09;;;;;;;3.55;2.35;;;;;;;;;;5020059;28;20029;-58
2022/08/13 15:02:37;;;;;;;3.13;2.40;;;;;;;;;;5026705;28;20372;-58
2022/08/13 15:05:05;;;;;;;2.63;2.42;;;;;;;;;;5030139;28;20038;-58
2022/08/13 15:07:31;;;;;;;3.35;2.30;;;;;;;;;;5033873;28;20029;-58